sensor_id;sensor_type;location;lat;lon;timestamp;P1;durP1;ratioP1;P2;durP2;ratioP2
28545;SDS011;15749;49.606;8.738;2023-10-08T00:01:37;2.33;;;1.70;;
28545;SDS011;15749;49.606;8.738;2023-10-08T00:04:10;1.97;;;1.80;;
28545;SDS011;15749;49.606;8.738;2023-10-08T00:06:39;2.63;;;1.90;;
28545;SDS011;15749;49.606;8.738;2023-10-08T00:09:10;2.03;;;1.80;;
28545;SDS011;15749;49.606;8.738;2023-10-08T00:11:41;4.13;;;2.10;;
28545;SDS011;15749;49.606;8.738;2023-10-08T00:14:10;3.30;;;2.10;;
28545;SDS011;15749;49.606;8.738;2023-10-08T00:16:48;4.70;;;2.40;;
28545;SDS011;15749;49.606;8.738;2023-10-08T00:19:18;4.73;;;2.50;;
28545;SDS011;15749;49.606;8.738;2023-10-08T00:21:48;4.67;;;2.60;;
28545;SDS011;15749;49.606;8.738;2023-10-08T00:24:21;3.03;;;2.33;;
28545;SDS011;15749;49.606;8.738;2023-10-08T00:26:54;1.80;;;1.70;;
28545;SDS011;15749;49.606;8.738;2023-10-08T00:29:23;2.60;;;2.00;;
28545;SDS011;15749;49.606;8.738;2023-10-08T00:31:52;2.83;;;2.33;;
28545;SDS011;15749;49.606;8.738;2023-10-08T00:34:27;4.43;;;2.50;;
28545;SDS011;15749;49.606;8.738;2023-10-08T00:36:56;2.90;;;2.23;;
28545;SDS011;15749;49.606;8.738;2023-10-08T00:39:27;5.03;;;2.13;;
28545;SDS011;15749;49.606;8.738;2023-10-08T00:42:01;2.80;;;2.50;;
28545;SDS011;15749;49.606;8.738;2023-10-08T00:44:32;4.77;;;2.20;;
28545;SDS011;15749;49.606;8.738;2023-10-08T00:47:06;2.33;;;1.67;;
28545;SDS011;15749;49.606;8.738;2023-10-08T00:49:39;2.70;;;2.10;;
28545;SDS011;15749;49.606;8.738;2023-10-08T00:52:21;5.90;;;2.30;;
28545;SDS011;15749;49.606;8.738;2023-10-08T00:55:00;2.13;;;1.53;;
28545;SDS011;15749;49.606;8.738;2023-10-08T00:57:36;2.50;;;1.90;;
28545;SDS011;15749;49.606;8.738;2023-10-08T01:00:10;2.97;;;2.30;;
28545;SDS011;15749;49.606;8.738;2023-10-08T01:02:50;5.67;;;2.47;;
28545;SDS011;15749;49.606;8.738;2023-10-08T01:05:28;3.80;;;2.37;;
28545;SDS011;15749;49.606;8.738;2023-10-08T01:08:17;3.50;;;2.50;;
28545;SDS011;15749;49.606;8.738;2023-10-08T01:10:52;3.20;;;2.20;;
28545;SDS011;15749;49.606;8.738;2023-10-08T01:13:31;4.53;;;2.60;;
28545;SDS011;15749;49.606;8.738;2023-10-08T01:16:12;3.83;;;2.30;;
28545;SDS011;15749;49.606;8.738;2023-10-08T01:18:42;3.17;;;2.20;;
28545;SDS011;15749;49.606;8.738;2023-10-08T01:21:17;3.83;;;2.47;;
28545;SDS011;15749;49.606;8.738;2023-10-08T01:24:03;4.00;;;2.30;;
28545;SDS011;15749;49.606;8.738;2023-10-08T01:26:34;2.23;;;2.03;;
28545;SDS011;15749;49.606;8.738;2023-10-08T01:29:10;4.63;;;2.20;;
28545;SDS011;15749;49.606;8.738;2023-10-08T01:31:47;3.97;;;2.53;;
28545;SDS011;15749;49.606;8.738;2023-10-08T01:34:20;3.87;;;2.50;;
28545;SDS011;15749;49.606;8.738;2023-10-08T01:36:55;3.40;;;1.77;;
28545;SDS011;15749;49.606;8.738;2023-10-08T01:39:30;4.27;;;2.40;;
28545;SDS011;15749;49.606;8.738;2023-10-08T01:42:00;2.17;;;1.80;;
28545;SDS011;15749;49.606;8.738;2023-10-08T01:44:30;2.70;;;1.90;;
28545;SDS011;15749;49.606;8.738;2023-10-08T01:47:01;3.13;;;2.07;;
28545;SDS011;15749;49.606;8.738;2023-10-08T01:49:31;1.67;;;1.43;;
28545;SDS011;15749;49.606;8.738;2023-10-08T01:52:00;3.17;;;1.70;;
28545;SDS011;15749;49.606;8.738;2023-10-08T01:54:36;3.10;;;2.30;;
28545;SDS011;15749;49.606;8.738;2023-10-08T01:57:05;1.93;;;1.70;;
28545;SDS011;15749;49.606;8.738;2023-10-08T01:59:36;2.60;;;1.57;;
28545;SDS011;15749;49.606;8.738;2023-10-08T02:02:06;1.90;;;1.60;;
28545;SDS011;15749;49.606;8.738;2023-10-08T02:04:35;1.60;;;1.50;;
28545;SDS011;15749;49.606;8.738;2023-10-08T02:07:05;1.67;;;1.50;;
28545;SDS011;15749;49.606;8.738;2023-10-08T02:09:38;1.77;;;1.40;;
28545;SDS011;15749;49.606;8.738;2023-10-08T02:12:09;1.63;;;1.50;;
28545;SDS011;15749;49.606;8.738;2023-10-08T02:14:41;2.10;;;1.73;;
28545;SDS011;15749;49.606;8.738;2023-10-08T02:17:11;3.07;;;1.90;;
28545;SDS011;15749;49.606;8.738;2023-10-08T02:19:41;1.97;;;1.77;;
28545;SDS011;15749;49.606;8.738;2023-10-08T02:22:10;2.63;;;1.70;;
28545;SDS011;15749;49.606;8.738;2023-10-08T02:24:43;3.03;;;2.00;;
28545;SDS011;15749;49.606;8.738;2023-10-08T02:27:12;2.07;;;1.77;;
28545;SDS011;15749;49.606;8.738;2023-10-08T02:29:42;2.63;;;1.70;;
28545;SDS011;15749;49.606;8.738;2023-10-08T02:32:11;2.60;;;1.57;;
28545;SDS011;15749;49.606;8.738;2023-10-08T02:34:41;3.77;;;2.07;;
28545;SDS011;15749;49.606;8.738;2023-10-08T02:37:10;4.40;;;1.97;;
28545;SDS011;15749;49.606;8.738;2023-10-08T02:39:40;4.13;;;2.17;;
28545;SDS011;15749;49.606;8.738;2023-10-08T02:42:11;2.73;;;2.10;;
28545;SDS011;15749;49.606;8.738;2023-10-08T02:44:41;2.80;;;1.83;;
28545;SDS011;15749;49.606;8.738;2023-10-08T02:47:10;2.63;;;1.93;;
28545;SDS011;15749;49.606;8.738;2023-10-08T02:49:40;2.73;;;2.00;;
28545;SDS011;15749;49.606;8.738;2023-10-08T02:52:10;3.17;;;2.43;;
28545;SDS011;15749;49.606;8.738;2023-10-08T02:54:39;2.47;;;2.10;;
28545;SDS011;15749;49.606;8.738;2023-10-08T02:57:09;3.33;;;2.07;;
28545;SDS011;15749;49.606;8.738;2023-10-08T02:59:41;3.67;;;2.03;;
28545;SDS011;15749;49.606;8.738;2023-10-08T03:02:13;3.77;;;2.20;;
28545;SDS011;15749;49.606;8.738;2023-10-08T03:04:47;2.50;;;2.30;;
28545;SDS011;15749;49.606;8.738;2023-10-08T03:07:19;2.67;;;2.10;;
28545;SDS011;15749;49.606;8.738;2023-10-08T03:10:00;1.67;;;1.57;;
28545;SDS011;15749;49.606;8.738;2023-10-08T03:12:34;3.67;;;2.27;;
28545;SDS011;15749;49.606;8.738;2023-10-08T03:15:05;3.13;;;2.17;;
28545;SDS011;15749;49.606;8.738;2023-10-08T03:17:41;1.80;;;1.40;;
28545;SDS011;15749;49.606;8.738;2023-10-08T03:20:19;1.60;;;1.20;;
28545;SDS011;15749;49.606;8.738;2023-10-08T03:23:06;1.90;;;1.50;;
28545;SDS011;15749;49.606;8.738;2023-10-08T03:25:41;2.47;;;1.80;;
28545;SDS011;15749;49.606;8.738;2023-10-08T03:28:11;1.90;;;1.70;;
28545;SDS011;15749;49.606;8.738;2023-10-08T03:30:41;3.73;;;2.07;;
28545;SDS011;15749;49.606;8.738;2023-10-08T03:33:23;1.57;;;1.47;;
28545;SDS011;15749;49.606;8.738;2023-10-08T03:35:54;2.40;;;2.20;;
28545;SDS011;15749;49.606;8.738;2023-10-08T03:38:23;1.57;;;1.47;;
28545;SDS011;15749;49.606;8.738;2023-10-08T03:41:09;2.30;;;2.07;;
28545;SDS011;15749;49.606;8.738;2023-10-08T03:43:45;2.73;;;2.13;;
28545;SDS011;15749;49.606;8.738;2023-10-08T03:46:20;5.53;;;2.30;;
28545;SDS011;15749;49.606;8.738;2023-10-08T03:48:51;3.67;;;2.60;;
28545;SDS011;15749;49.606;8.738;2023-10-08T03:51:24;2.60;;;2.40;;
28545;SDS011;15749;49.606;8.738;2023-10-08T03:53:55;2.87;;;2.50;;
28545;SDS011;15749;49.606;8.738;2023-10-08T03:56:34;2.17;;;1.97;;
28545;SDS011;15749;49.606;8.738;2023-10-08T03:59:05;2.53;;;2.30;;
28545;SDS011;15749;49.606;8.738;2023-10-08T04:01:40;2.40;;;2.00;;
28545;SDS011;15749;49.606;8.738;2023-10-08T04:04:11;3.50;;;2.23;;
28545;SDS011;15749;49.606;8.738;2023-10-08T04:06:42;2.63;;;2.20;;
28545;SDS011;15749;49.606;8.738;2023-10-08T04:09:17;2.50;;;1.97;;
28545;SDS011;15749;49.606;8.738;2023-10-08T04:11:51;2.33;;;2.10;;
28545;SDS011;15749;49.606;8.738;2023-10-08T04:14:27;1.77;;;1.40;;
28545;SDS011;15749;49.606;8.738;2023-10-08T04:16:59;2.90;;;1.97;;
28545;SDS011;15749;49.606;8.738;2023-10-08T04:19:29;2.20;;;1.60;;
28545;SDS011;15749;49.606;8.738;2023-10-08T04:21:59;2.43;;;2.23;;
28545;SDS011;15749;49.606;8.738;2023-10-08T04:24:31;2.00;;;1.90;;
28545;SDS011;15749;49.606;8.738;2023-10-08T04:27:08;3.97;;;2.60;;
28545;SDS011;15749;49.606;8.738;2023-10-08T04:29:46;3.43;;;2.20;;
28545;SDS011;15749;49.606;8.738;2023-10-08T04:32:20;3.20;;;2.70;;
28545;SDS011;15749;49.606;8.738;2023-10-08T04:34:52;3.63;;;2.50;;
28545;SDS011;15749;49.606;8.738;2023-10-08T04:37:23;2.37;;;2.17;;
28545;SDS011;15749;49.606;8.738;2023-10-08T04:40:07;3.17;;;2.00;;
28545;SDS011;15749;49.606;8.738;2023-10-08T04:42:47;3.70;;;2.10;;
28545;SDS011;15749;49.606;8.738;2023-10-08T04:45:35;1.90;;;1.53;;
28545;SDS011;15749;49.606;8.738;2023-10-08T04:48:07;2.23;;;1.40;;
28545;SDS011;15749;49.606;8.738;2023-10-08T04:50:48;2.50;;;1.90;;
28545;SDS011;15749;49.606;8.738;2023-10-08T04:53:29;1.60;;;1.50;;
28545;SDS011;15749;49.606;8.738;2023-10-08T04:56:10;2.07;;;1.23;;
28545;SDS011;15749;49.606;8.738;2023-10-08T04:59:00;2.20;;;2.00;;
28545;SDS011;15749;49.606;8.738;2023-10-08T05:01:37;1.87;;;1.60;;
28545;SDS011;15749;49.606;8.738;2023-10-08T05:04:15;2.10;;;1.63;;
28545;SDS011;15749;49.606;8.738;2023-10-08T05:07:00;1.80;;;1.70;;
28545;SDS011;15749;49.606;8.738;2023-10-08T05:09:51;3.00;;;2.20;;
28545;SDS011;15749;49.606;8.738;2023-10-08T05:12:43;2.63;;;2.20;;
28545;SDS011;15749;49.606;8.738;2023-10-08T05:15:18;3.00;;;2.40;;
28545;SDS011;15749;49.606;8.738;2023-10-08T05:18:02;4.03;;;2.83;;
28545;SDS011;15749;49.606;8.738;2023-10-08T05:20:50;3.40;;;2.87;;
28545;SDS011;15749;49.606;8.738;2023-10-08T05:23:31;3.20;;;2.80;;
28545;SDS011;15749;49.606;8.738;2023-10-08T05:26:20;5.83;;;2.57;;
28545;SDS011;15749;49.606;8.738;2023-10-08T05:29:01;3.33;;;2.20;;
28545;SDS011;15749;49.606;8.738;2023-10-08T05:31:51;1.63;;;1.50;;
28545;SDS011;15749;49.606;8.738;2023-10-08T05:34:42;1.87;;;1.67;;
28545;SDS011;15749;49.606;8.738;2023-10-08T05:37:18;2.40;;;2.13;;
28545;SDS011;15749;49.606;8.738;2023-10-08T05:40:09;4.70;;;2.70;;
28545;SDS011;15749;49.606;8.738;2023-10-08T05:43:05;3.10;;;2.70;;
28545;SDS011;15749;49.606;8.738;2023-10-08T05:46:05;9.23;;;3.73;;
28545;SDS011;15749;49.606;8.738;2023-10-08T05:49:15;8.30;;;4.37;;
28545;SDS011;15749;49.606;8.738;2023-10-08T05:52:07;5.63;;;3.30;;
28545;SDS011;15749;49.606;8.738;2023-10-08T05:54:52;4.97;;;3.23;;
28545;SDS011;15749;49.606;8.738;2023-10-08T05:57:39;2.67;;;2.23;;
28545;SDS011;15749;49.606;8.738;2023-10-08T06:00:30;5.07;;;2.97;;
28545;SDS011;15749;49.606;8.738;2023-10-08T06:03:32;2.70;;;2.23;;
28545;SDS011;15749;49.606;8.738;2023-10-08T06:06:31;5.50;;;3.60;;
28545;SDS011;15749;49.606;8.738;2023-10-08T06:09:31;3.80;;;3.00;;
28545;SDS011;15749;49.606;8.738;2023-10-08T06:12:05;3.53;;;2.93;;
28545;SDS011;15749;49.606;8.738;2023-10-08T06:15:08;4.20;;;3.07;;
28545;SDS011;15749;49.606;8.738;2023-10-08T06:18:26;3.33;;;2.90;;
28545;SDS011;15749;49.606;8.738;2023-10-08T06:21:41;2.67;;;2.40;;
28545;SDS011;15749;49.606;8.738;2023-10-08T06:24:18;2.90;;;2.40;;
28545;SDS011;15749;49.606;8.738;2023-10-08T06:26:58;2.47;;;2.10;;
28545;SDS011;15749;49.606;8.738;2023-10-08T06:29:54;2.23;;;2.00;;
28545;SDS011;15749;49.606;8.738;2023-10-08T06:32:57;1.73;;;1.63;;
28545;SDS011;15749;49.606;8.738;2023-10-08T06:35:37;2.40;;;1.60;;
28545;SDS011;15749;49.606;8.738;2023-10-08T06:38:22;3.80;;;2.83;;
28545;SDS011;15749;49.606;8.738;2023-10-08T06:40:56;3.00;;;2.50;;
28545;SDS011;15749;49.606;8.738;2023-10-08T06:43:29;4.07;;;2.63;;
28545;SDS011;15749;49.606;8.738;2023-10-08T06:45:58;4.10;;;2.90;;
28545;SDS011;15749;49.606;8.738;2023-10-08T06:48:27;3.30;;;2.90;;
28545;SDS011;15749;49.606;8.738;2023-10-08T06:50:57;2.23;;;2.03;;
28545;SDS011;15749;49.606;8.738;2023-10-08T06:53:40;2.03;;;1.80;;
28545;SDS011;15749;49.606;8.738;2023-10-08T06:56:13;1.80;;;1.70;;
28545;SDS011;15749;49.606;8.738;2023-10-08T06:58:44;3.73;;;2.50;;
28545;SDS011;15749;49.606;8.738;2023-10-08T07:01:16;4.20;;;2.77;;
28545;SDS011;15749;49.606;8.738;2023-10-08T07:03:48;3.33;;;2.93;;
28545;SDS011;15749;49.606;8.738;2023-10-08T07:06:24;3.13;;;2.80;;
28545;SDS011;15749;49.606;8.738;2023-10-08T07:09:00;4.30;;;3.90;;
28545;SDS011;15749;49.606;8.738;2023-10-08T07:11:37;4.40;;;3.50;;
28545;SDS011;15749;49.606;8.738;2023-10-08T07:14:26;2.77;;;2.40;;
28545;SDS011;15749;49.606;8.738;2023-10-08T07:17:27;3.57;;;2.90;;
28545;SDS011;15749;49.606;8.738;2023-10-08T07:20:16;2.73;;;2.27;;
28545;SDS011;15749;49.606;8.738;2023-10-08T07:22:49;3.20;;;2.50;;
28545;SDS011;15749;49.606;8.738;2023-10-08T07:25:21;2.93;;;2.27;;
28545;SDS011;15749;49.606;8.738;2023-10-08T07:27:50;3.13;;;2.13;;
28545;SDS011;15749;49.606;8.738;2023-10-08T07:30:22;2.17;;;1.97;;
28545;SDS011;15749;49.606;8.738;2023-10-08T07:32:59;1.90;;;1.70;;
28545;SDS011;15749;49.606;8.738;2023-10-08T07:35:31;3.50;;;2.77;;
28545;SDS011;15749;49.606;8.738;2023-10-08T07:38:06;3.57;;;3.10;;
28545;SDS011;15749;49.606;8.738;2023-10-08T07:40:36;3.93;;;3.40;;
28545;SDS011;15749;49.606;8.738;2023-10-08T07:43:08;2.43;;;2.07;;
28545;SDS011;15749;49.606;8.738;2023-10-08T07:45:39;2.33;;;1.80;;
28545;SDS011;15749;49.606;8.738;2023-10-08T07:48:12;2.80;;;2.10;;
28545;SDS011;15749;49.606;8.738;2023-10-08T07:50:43;2.40;;;2.20;;
28545;SDS011;15749;49.606;8.738;2023-10-08T07:53:15;2.27;;;1.80;;
28545;SDS011;15749;49.606;8.738;2023-10-08T07:55:48;3.40;;;2.70;;
28545;SDS011;15749;49.606;8.738;2023-10-08T07:58:18;3.93;;;3.27;;
28545;SDS011;15749;49.606;8.738;2023-10-08T08:00:48;5.80;;;3.33;;
28545;SDS011;15749;49.606;8.738;2023-10-08T08:03:21;4.03;;;3.53;;
28545;SDS011;15749;49.606;8.738;2023-10-08T08:05:52;5.50;;;3.33;;
28545;SDS011;15749;49.606;8.738;2023-10-08T08:08:22;3.70;;;3.10;;
28545;SDS011;15749;49.606;8.738;2023-10-08T08:10:54;3.17;;;2.00;;
28545;SDS011;15749;49.606;8.738;2023-10-08T08:13:25;2.03;;;1.57;;
28545;SDS011;15749;49.606;8.738;2023-10-08T08:15:57;3.90;;;2.67;;
28545;SDS011;15749;49.606;8.738;2023-10-08T08:18:25;3.30;;;2.23;;
28545;SDS011;15749;49.606;8.738;2023-10-08T08:21:00;1.97;;;1.87;;
28545;SDS011;15749;49.606;8.738;2023-10-08T08:23:30;2.17;;;1.50;;
28545;SDS011;15749;49.606;8.738;2023-10-08T08:26:00;3.23;;;1.90;;
28545;SDS011;15749;49.606;8.738;2023-10-08T08:28:41;1.97;;;1.60;;
28545;SDS011;15749;49.606;8.738;2023-10-08T08:31:14;1.93;;;1.63;;
28545;SDS011;15749;49.606;8.738;2023-10-08T08:33:45;1.87;;;1.60;;
28545;SDS011;15749;49.606;8.738;2023-10-08T08:36:32;1.80;;;1.40;;
28545;SDS011;15749;49.606;8.738;2023-10-08T08:39:01;1.30;;;1.20;;
28545;SDS011;15749;49.606;8.738;2023-10-08T08:41:32;3.87;;;2.33;;
28545;SDS011;15749;49.606;8.738;2023-10-08T08:44:04;3.67;;;1.90;;
28545;SDS011;15749;49.606;8.738;2023-10-08T08:46:37;2.40;;;2.20;;
28545;SDS011;15749;49.606;8.738;2023-10-08T08:49:07;3.33;;;2.23;;
28545;SDS011;15749;49.606;8.738;2023-10-08T08:51:37;2.83;;;2.20;;
28545;SDS011;15749;49.606;8.738;2023-10-08T08:54:08;1.70;;;1.60;;
28545;SDS011;15749;49.606;8.738;2023-10-08T08:56:41;2.40;;;1.70;;
28545;SDS011;15749;49.606;8.738;2023-10-08T08:59:15;1.87;;;1.50;;
28545;SDS011;15749;49.606;8.738;2023-10-08T09:01:46;1.73;;;1.50;;
28545;SDS011;15749;49.606;8.738;2023-10-08T09:04:18;1.50;;;1.30;;
28545;SDS011;15749;49.606;8.738;2023-10-08T09:06:57;2.03;;;1.80;;
28545;SDS011;15749;49.606;8.738;2023-10-08T09:09:31;2.23;;;1.70;;
28545;SDS011;15749;49.606;8.738;2023-10-08T09:12:04;1.60;;;1.50;;
28545;SDS011;15749;49.606;8.738;2023-10-08T09:14:37;2.20;;;1.80;;
28545;SDS011;15749;49.606;8.738;2023-10-08T09:17:10;2.07;;;1.73;;
28545;SDS011;15749;49.606;8.738;2023-10-08T09:19:42;2.20;;;1.67;;
28545;SDS011;15749;49.606;8.738;2023-10-08T09:22:12;2.43;;;1.63;;
28545;SDS011;15749;49.606;8.738;2023-10-08T09:24:49;1.50;;;1.30;;
28545;SDS011;15749;49.606;8.738;2023-10-08T09:27:28;1.63;;;1.40;;
28545;SDS011;15749;49.606;8.738;2023-10-08T09:29:58;2.13;;;1.50;;
28545;SDS011;15749;49.606;8.738;2023-10-08T09:32:31;2.73;;;1.80;;
28545;SDS011;15749;49.606;8.738;2023-10-08T09:35:41;2.23;;;1.60;;
28545;SDS011;15749;49.606;8.738;2023-10-08T09:38:11;1.60;;;1.40;;
28545;SDS011;15749;49.606;8.738;2023-10-08T09:40:45;1.57;;;1.30;;
28545;SDS011;15749;49.606;8.738;2023-10-08T09:43:15;3.23;;;2.17;;
28545;SDS011;15749;49.606;8.738;2023-10-08T09:45:47;2.03;;;1.87;;
28545;SDS011;15749;49.606;8.738;2023-10-08T09:48:21;3.43;;;3.10;;
28545;SDS011;15749;49.606;8.738;2023-10-08T09:50:54;4.17;;;3.23;;
28545;SDS011;15749;49.606;8.738;2023-10-08T09:53:29;5.03;;;3.30;;
28545;SDS011;15749;49.606;8.738;2023-10-08T09:56:12;3.93;;;2.40;;
28545;SDS011;15749;49.606;8.738;2023-10-08T09:58:45;4.43;;;3.20;;
28545;SDS011;15749;49.606;8.738;2023-10-08T10:01:16;3.63;;;2.43;;
28545;SDS011;15749;49.606;8.738;2023-10-08T10:03:48;7.47;;;3.87;;
28545;SDS011;15749;49.606;8.738;2023-10-08T10:06:18;4.90;;;3.40;;
28545;SDS011;15749;49.606;8.738;2023-10-08T10:08:49;3.83;;;3.00;;
28545;SDS011;15749;49.606;8.738;2023-10-08T10:11:18;2.93;;;2.67;;
28545;SDS011;15749;49.606;8.738;2023-10-08T10:13:50;3.70;;;3.17;;
28545;SDS011;15749;49.606;8.738;2023-10-08T10:16:27;5.03;;;3.93;;
28545;SDS011;15749;49.606;8.738;2023-10-08T10:18:59;2.50;;;2.30;;
28545;SDS011;15749;49.606;8.738;2023-10-08T10:21:30;2.27;;;2.00;;
28545;SDS011;15749;49.606;8.738;2023-10-08T10:24:03;3.77;;;2.80;;
28545;SDS011;15749;49.606;8.738;2023-10-08T10:26:50;4.60;;;2.20;;
28545;SDS011;15749;49.606;8.738;2023-10-08T10:29:23;4.53;;;2.83;;
28545;SDS011;15749;49.606;8.738;2023-10-08T10:32:00;3.43;;;2.20;;
28545;SDS011;15749;49.606;8.738;2023-10-08T10:34:37;3.50;;;2.67;;
28545;SDS011;15749;49.606;8.738;2023-10-08T10:37:07;3.20;;;2.37;;
28545;SDS011;15749;49.606;8.738;2023-10-08T10:39:50;2.40;;;2.20;;
28545;SDS011;15749;49.606;8.738;2023-10-08T10:42:22;2.67;;;1.93;;
28545;SDS011;15749;49.606;8.738;2023-10-08T10:44:54;4.90;;;2.23;;
28545;SDS011;15749;49.606;8.738;2023-10-08T10:47:26;4.50;;;3.17;;
28545;SDS011;15749;49.606;8.738;2023-10-08T10:49:56;4.03;;;2.80;;
28545;SDS011;15749;49.606;8.738;2023-10-08T10:52:53;4.27;;;2.17;;
28545;SDS011;15749;49.606;8.738;2023-10-08T10:55:23;4.00;;;2.67;;
28545;SDS011;15749;49.606;8.738;2023-10-08T10:57:59;7.30;;;3.97;;
28545;SDS011;15749;49.606;8.738;2023-10-08T11:00:34;3.43;;;2.83;;
28545;SDS011;15749;49.606;8.738;2023-10-08T11:03:24;3.53;;;2.70;;
28545;SDS011;15749;49.606;8.738;2023-10-08T11:05:59;6.67;;;3.20;;
28545;SDS011;15749;49.606;8.738;2023-10-08T11:08:33;5.07;;;3.73;;
28545;SDS011;15749;49.606;8.738;2023-10-08T11:11:03;3.97;;;2.90;;
28545;SDS011;15749;49.606;8.738;2023-10-08T11:13:37;3.83;;;2.10;;
28545;SDS011;15749;49.606;8.738;2023-10-08T11:16:09;5.07;;;2.97;;
28545;SDS011;15749;49.606;8.738;2023-10-08T11:18:42;4.83;;;3.37;;
28545;SDS011;15749;49.606;8.738;2023-10-08T11:21:16;4.57;;;3.60;;
28545;SDS011;15749;49.606;8.738;2023-10-08T11:23:53;5.33;;;4.17;;
28545;SDS011;15749;49.606;8.738;2023-10-08T11:26:35;6.37;;;3.37;;
28545;SDS011;15749;49.606;8.738;2023-10-08T11:29:06;4.30;;;3.20;;
28545;SDS011;15749;49.606;8.738;2023-10-08T11:31:41;2.80;;;2.10;;
28545;SDS011;15749;49.606;8.738;2023-10-08T11:34:11;2.77;;;2.37;;
28545;SDS011;15749;49.606;8.738;2023-10-08T11:36:45;4.87;;;2.67;;
28545;SDS011;15749;49.606;8.738;2023-10-08T11:39:21;3.50;;;2.77;;
28545;SDS011;15749;49.606;8.738;2023-10-08T11:41:55;2.90;;;2.20;;
28545;SDS011;15749;49.606;8.738;2023-10-08T11:44:35;5.43;;;3.10;;
28545;SDS011;15749;49.606;8.738;2023-10-08T11:47:05;2.45;;;2.10;;
28545;SDS011;15749;49.606;8.738;2023-10-08T11:49:40;3.30;;;2.45;;
28545;SDS011;15749;49.606;8.738;2023-10-08T11:52:16;3.78;;;2.60;;
28545;SDS011;15749;49.606;8.738;2023-10-08T11:54:49;3.80;;;2.90;;
28545;SDS011;15749;49.606;8.738;2023-10-08T11:57:20;5.90;;;2.92;;
28545;SDS011;15749;49.606;8.738;2023-10-08T11:59:50;3.88;;;3.17;;
28545;SDS011;15749;49.606;8.738;2023-10-08T12:02:22;4.70;;;2.40;;
28545;SDS011;15749;49.606;8.738;2023-10-08T12:04:52;3.20;;;2.58;;
28545;SDS011;15749;49.606;8.738;2023-10-08T12:07:26;3.22;;;2.38;;
28545;SDS011;15749;49.606;8.738;2023-10-08T12:09:56;2.83;;;2.20;;
28545;SDS011;15749;49.606;8.738;2023-10-08T12:12:25;2.17;;;1.73;;
28545;SDS011;15749;49.606;8.738;2023-10-08T12:14:55;3.45;;;2.67;;
28545;SDS011;15749;49.606;8.738;2023-10-08T12:17:24;3.00;;;2.38;;
28545;SDS011;15749;49.606;8.738;2023-10-08T12:20:05;5.05;;;1.80;;
28545;SDS011;15749;49.606;8.738;2023-10-08T12:22:51;3.08;;;1.92;;
28545;SDS011;15749;49.606;8.738;2023-10-08T12:25:20;3.67;;;2.75;;
28545;SDS011;15749;49.606;8.738;2023-10-08T12:27:50;3.78;;;2.55;;
28545;SDS011;15749;49.606;8.738;2023-10-08T12:30:23;4.00;;;3.00;;
28545;SDS011;15749;49.606;8.738;2023-10-08T12:32:58;5.07;;;2.67;;
28545;SDS011;15749;49.606;8.738;2023-10-08T12:35:28;4.00;;;2.70;;
28545;SDS011;15749;49.606;8.738;2023-10-08T12:37:59;4.55;;;3.40;;
28545;SDS011;15749;49.606;8.738;2023-10-08T12:40:28;3.10;;;2.63;;
28545;SDS011;15749;49.606;8.738;2023-10-08T12:43:09;4.30;;;2.58;;
28545;SDS011;15749;49.606;8.738;2023-10-08T12:45:41;1.67;;;1.58;;
28545;SDS011;15749;49.606;8.738;2023-10-08T12:48:12;2.72;;;2.10;;
28545;SDS011;15749;49.606;8.738;2023-10-08T12:50:42;2.80;;;2.10;;
28545;SDS011;15749;49.606;8.738;2023-10-08T12:53:13;3.10;;;1.77;;
28545;SDS011;15749;49.606;8.738;2023-10-08T12:55:43;4.80;;;2.42;;
28545;SDS011;15749;49.606;8.738;2023-10-08T12:58:13;3.20;;;2.63;;
28545;SDS011;15749;49.606;8.738;2023-10-08T13:00:44;2.33;;;1.90;;
28545;SDS011;15749;49.606;8.738;2023-10-08T13:03:17;4.72;;;3.20;;
28545;SDS011;15749;49.606;8.738;2023-10-08T13:05:51;9.05;;;3.53;;
28545;SDS011;15749;49.606;8.738;2023-10-08T13:08:22;3.00;;;2.15;;
28545;SDS011;15749;49.606;8.738;2023-10-08T13:11:01;3.58;;;2.15;;
28545;SDS011;15749;49.606;8.738;2023-10-08T13:13:31;5.50;;;2.50;;
28545;SDS011;15749;49.606;8.738;2023-10-08T13:16:01;5.93;;;3.03;;
28545;SDS011;15749;49.606;8.738;2023-10-08T13:18:35;7.15;;;2.92;;
28545;SDS011;15749;49.606;8.738;2023-10-08T13:21:05;2.45;;;2.25;;
28545;SDS011;15749;49.606;8.738;2023-10-08T13:23:40;2.75;;;2.00;;
28545;SDS011;15749;49.606;8.738;2023-10-08T13:26:17;5.25;;;2.65;;
28545;SDS011;15749;49.606;8.738;2023-10-08T13:28:50;3.40;;;2.40;;
28545;SDS011;15749;49.606;8.738;2023-10-08T13:31:19;2.30;;;1.63;;
28545;SDS011;15749;49.606;8.738;2023-10-08T13:33:49;4.93;;;2.58;;
28545;SDS011;15749;49.606;8.738;2023-10-08T13:36:24;6.90;;;3.42;;
28545;SDS011;15749;49.606;8.738;2023-10-08T13:38:54;3.70;;;2.47;;
28545;SDS011;15749;49.606;8.738;2023-10-08T13:41:25;3.63;;;2.25;;
28545;SDS011;15749;49.606;8.738;2023-10-08T13:43:59;4.15;;;2.25;;
28545;SDS011;15749;49.606;8.738;2023-10-08T13:46:32;2.08;;;1.83;;
28545;SDS011;15749;49.606;8.738;2023-10-08T13:49:12;3.05;;;2.08;;
28545;SDS011;15749;49.606;8.738;2023-10-08T13:51:49;1.80;;;1.65;;
28545;SDS011;15749;49.606;8.738;2023-10-08T13:54:26;1.90;;;1.60;;
28545;SDS011;15749;49.606;8.738;2023-10-08T13:56:57;2.55;;;1.65;;
28545;SDS011;15749;49.606;8.738;2023-10-08T13:59:29;4.68;;;1.70;;
28545;SDS011;15749;49.606;8.738;2023-10-08T14:02:00;3.20;;;1.90;;
28545;SDS011;15749;49.606;8.738;2023-10-08T14:04:42;3.47;;;2.10;;
28545;SDS011;15749;49.606;8.738;2023-10-08T14:07:12;2.97;;;1.90;;
28545;SDS011;15749;49.606;8.738;2023-10-08T14:09:46;1.85;;;1.38;;
28545;SDS011;15749;49.606;8.738;2023-10-08T14:12:15;2.90;;;1.88;;
28545;SDS011;15749;49.606;8.738;2023-10-08T14:14:44;2.72;;;1.90;;
28545;SDS011;15749;49.606;8.738;2023-10-08T14:17:16;2.45;;;2.05;;
28545;SDS011;15749;49.606;8.738;2023-10-08T14:20:06;3.35;;;2.10;;
28545;SDS011;15749;49.606;8.738;2023-10-08T14:22:40;5.00;;;3.00;;
28545;SDS011;15749;49.606;8.738;2023-10-08T14:25:12;4.80;;;3.38;;
28545;SDS011;15749;49.606;8.738;2023-10-08T14:27:44;3.35;;;2.50;;
28545;SDS011;15749;49.606;8.738;2023-10-08T14:30:20;4.82;;;2.10;;
28545;SDS011;15749;49.606;8.738;2023-10-08T14:32:52;2.05;;;1.70;;
28545;SDS011;15749;49.606;8.738;2023-10-08T14:35:27;2.03;;;1.73;;
28545;SDS011;15749;49.606;8.738;2023-10-08T14:38:14;3.28;;;2.58;;
28545;SDS011;15749;49.606;8.738;2023-10-08T14:41:01;2.25;;;2.05;;
28545;SDS011;15749;49.606;8.738;2023-10-08T14:43:48;2.63;;;2.35;;
28545;SDS011;15749;49.606;8.738;2023-10-08T14:46:19;4.53;;;2.95;;
28545;SDS011;15749;49.606;8.738;2023-10-08T14:48:48;4.45;;;2.60;;
28545;SDS011;15749;49.606;8.738;2023-10-08T14:51:17;3.75;;;2.50;;
28545;SDS011;15749;49.606;8.738;2023-10-08T14:53:47;2.00;;;1.80;;
28545;SDS011;15749;49.606;8.738;2023-10-08T14:56:18;2.63;;;2.40;;
28545;SDS011;15749;49.606;8.738;2023-10-08T14:58:47;2.70;;;2.10;;
28545;SDS011;15749;49.606;8.738;2023-10-08T15:01:16;3.40;;;2.38;;
28545;SDS011;15749;49.606;8.738;2023-10-08T15:03:47;3.67;;;2.65;;
28545;SDS011;15749;49.606;8.738;2023-10-08T15:06:17;4.53;;;2.75;;
28545;SDS011;15749;49.606;8.738;2023-10-08T15:08:48;3.67;;;2.90;;
28545;SDS011;15749;49.606;8.738;2023-10-08T15:11:21;2.92;;;2.58;;
28545;SDS011;15749;49.606;8.738;2023-10-08T15:13:50;3.03;;;2.72;;
28545;SDS011;15749;49.606;8.738;2023-10-08T15:16:21;3.70;;;2.83;;
28545;SDS011;15749;49.606;8.738;2023-10-08T15:18:51;3.80;;;2.75;;
28545;SDS011;15749;49.606;8.738;2023-10-08T15:21:20;5.10;;;3.03;;
28545;SDS011;15749;49.606;8.738;2023-10-08T15:23:51;3.20;;;2.50;;
28545;SDS011;15749;49.606;8.738;2023-10-08T15:26:22;4.57;;;1.83;;
28545;SDS011;15749;49.606;8.738;2023-10-08T15:28:53;3.80;;;2.60;;
28545;SDS011;15749;49.606;8.738;2023-10-08T15:31:22;5.05;;;3.10;;
28545;SDS011;15749;49.606;8.738;2023-10-08T15:33:52;2.00;;;1.90;;
28545;SDS011;15749;49.606;8.738;2023-10-08T15:36:24;3.38;;;2.65;;